Time;durP1;ratioP1;P1;durP2;ratioP2;P2;SDS_P1;SDS_P2;PMS_P1;PMS_P2;Temp;Humidity;BMP_temperature;BMP_pressure;BME280_temperature;BME280_humidity;BME280_pressure;Samples;Min_cycle;Max_cycle;Signal;HPM_P1;HPM_P2
2023/05/07 00:02:04;;;;;;;9.80;5.78;;;;;;;2.70;64.50;147996.66;5064360;28;20052;-67
2023/05/07 00:04:36;;;;;;;8.45;5.85;;;;;;;2.84;64.04;148029.84;5063339;28;20051;-66
2023/05/07 00:07:02;;;;;;;;;;;;;;;2.80;64.52;148020.88;5063685;28;20091;-65
2023/05/07 00:09:27;;;;;;;9.32;6.13;;;;;;;2.76;64.11;148010.69;5064061;28;20066;-67
2023/05/07 00:11:53;;;;;;;7.38;5.30;;;;;;;2.75;63.65;148008.13;5066324;28;20028;-67
2023/05/07 00:14:18;;;;;;;7.82;6.22;;;;;;;2.74;64.35;148005.59;5063567;28;20025;-67
2023/05/07 00:16:44;;;;;;;9.65;6.18;;;;;;;2.67;64.48;147989.03;5063137;28;20033;-66
2023/05/07 00:19:09;;;;;;;7.72;6.18;;;;;;;2.48;65.34;147941.91;5063164;28;20024;-66
2023/05/07 00:21:35;;;;;;;10.73;5.90;;;;;;;2.58;65.21;147967.38;5062959;28;20034;-66
2023/05/07 00:24:01;;;;;;;11.70;6.07;;;;;;;2.70;64.89;147995.41;5062981;28;20459;-66
2023/05/07 00:26:26;;;;;;;9.38;6.15;;;;;;;2.67;64.87;147987.78;5056144;28;20213;-66
2023/05/07 00:28:52;;;;;;;12.32;5.88;;;;;;;2.65;65.29;147983.97;5030125;28;20032;-67
2023/05/07 00:31:17;;;;;;;8.38;5.63;;;;;;;2.65;64.74;147982.66;5045191;28;20017;-68
2023/05/07 00:33:43;;;;;;;14.25;6.93;;;;;;;2.50;64.96;147946.97;5027848;28;20060;-66
2023/05/07 00:36:09;;;;;;;9.18;6.05;;;;;;;2.55;65.18;147959.75;5055269;28;20060;-65
2023/05/07 00:38:35;;;;;;;9.27;6.43;;;;;;;2.52;65.13;147952.09;5054924;28;20026;-66
2023/05/07 00:41:02;;;;;;;9.40;5.90;;;;;;;2.33;65.17;147903.69;5070730;28;20025;-65
2023/05/07 00:43:27;;;;;;;9.63;6.18;;;;;;;2.51;65.21;147949.53;5045035;28;20051;-66
2023/05/07 00:45:53;;;;;;;12.13;6.55;;;;;;;2.57;64.97;147964.81;5062228;28;20033;-66
2023/05/07 00:48:19;;;;;;;15.13;6.50;;;;;;;2.57;65.20;147963.56;5062585;28;20035;-65
2023/05/07 00:50:45;;;;;;;10.55;5.72;;;;;;;2.50;65.10;147945.72;5062097;28;20020;-67
2023/05/07 00:53:11;;;;;;;9.35;5.97;;;;;;;2.39;65.92;147920.25;5062491;28;20352;-65
2023/05/07 00:55:38;;;;;;;7.75;6.03;;;;;;;2.35;65.79;147908.75;5061890;28;20037;-65
2023/05/07 00:58:03;;;;;;;10.60;5.63;;;;;;;2.32;65.46;147901.13;5062153;28;20037;-67
2023/05/07 01:00:29;;;;;;;11.52;6.45;;;;;;;2.40;65.39;147921.50;5061934;28;20104;-66
2023/05/07 01:02:55;;;;;;;7.88;5.70;;;;;;;2.36;65.25;147911.31;5051855;28;20029;-66
2023/05/07 01:05:23;;;;;;;9.45;6.10;;;;;;;2.38;65.79;147917.69;5047773;28;20052;-66
2023/05/07 01:07:51;;;;;;;9.07;6.68;;;;;;;2.36;65.72;147911.31;5060673;28;20048;-67
2023/05/07 01:10:18;;;;;;;9.38;6.13;;;;;;;2.39;64.99;147920.25;5042231;28;20033;-67
2023/05/07 01:12:45;;;;;;;8.40;5.25;;;;;;;2.21;65.76;147874.41;5059060;28;20099;-66
2023/05/07 01:15:11;;;;;;;8.63;5.60;;;;;;;2.27;66.37;147888.34;5061550;28;20462;-65
2023/05/07 01:17:41;;;;;;;9.77;6.30;;;;;;;2.28;66.17;147890.91;5053737;28;20318;-66
2023/05/07 01:20:10;;;;;;;9.65;5.97;;;;;;;2.15;66.32;147860.38;5053674;28;20252;-66
2023/05/07 01:22:38;;;;;;;8.93;5.97;;;;;;;2.16;65.96;147862.91;5061828;28;20055;-66
2023/05/07 01:25:07;;;;;;;9.45;5.85;;;;;;;1.99;66.41;147820.84;5062049;28;20029;-66
2023/05/07 01:27:33;;;;;;;7.38;5.05;;;;;;;2.09;66.42;147843.81;5046395;28;20029;-67
2023/05/07 01:29:59;;;;;;;6.32;4.90;;;;;;;2.10;66.64;147847.63;5034509;28;20216;-66
2023/05/07 01:32:37;;;;;;;6.18;4.85;;;;;;;2.07;67.38;147841.25;5053230;28;20074;-66
2023/05/07 01:35:07;;;;;;;10.82;5.70;;;;;;;1.95;66.59;147810.66;5061820;28;20337;-66
2023/05/07 01:37:33;;;;;;;8.45;4.93;;;;;;;2.07;66.96;147840.00;5061802;28;20028;-66
2023/05/07 01:40:00;;;;;;;7.65;5.10;;;;;;;2.10;66.43;147846.38;5062038;28;20037;-67
2023/05/07 01:42:26;;;;;;;5.43;4.75;;;;;;;2.01;67.21;147824.69;5061702;28;20256;-67
2023/05/07 01:44:52;;;;;;;5.00;4.43;;;;;;;1.95;67.18;147809.41;5060591;28;20031;-66
2023/05/07 01:47:18;;;;;;;6.90;4.63;;;;;;;1.97;67.47;147814.53;5061569;28;20025;-66
2023/05/07 01:49:44;;;;;;;8.57;3.92;;;;;;;1.92;67.27;147803.03;5061775;28;20037;-65
2023/05/07 01:52:11;;;;;;;5.05;4.03;;;;;;;1.86;67.47;147789.03;5061371;28;20166;-65
2023/05/07 01:54:37;;;;;;;7.80;5.05;;;;;;;1.96;67.19;147811.97;5061748;28;20218;-67
2023/05/07 01:57:02;;;;;;;9.63;4.40;;;;;;;1.99;66.93;147820.84;5050411;28;20100;-67
2023/05/07 01:59:28;;;;;;;7.40;5.03;;;;;;;1.97;67.28;147815.78;5048352;28;20052;-66
2023/05/07 02:01:54;;;;;;;8.10;5.03;;;;;;;2.01;67.44;147825.97;5067619;28;20151;-66
2023/05/07 02:04:19;;;;;;;7.85;5.20;;;;;;;2.04;67.08;147833.63;5063917;28;20034;-66
2023/05/07 02:06:45;;;;;;;7.68;4.50;;;;;;;2.15;66.98;147860.38;5052469;28;20029;-66
2023/05/07 02:09:11;;;;;;;8.05;4.82;;;;;;;2.17;67.01;147865.47;5068246;28;20029;-66
2023/05/07 02:11:36;;;;;;;8.35;5.05;;;;;;;2.21;66.67;147875.66;5061245;28;20297;-67
2023/05/07 02:14:02;;;;;;;11.02;5.20;;;;;;;2.29;66.94;147893.47;5061322;28;20092;-65
2023/05/07 02:16:27;;;;;;;8.13;5.25;;;;;;;2.06;66.76;147837.44;5061397;28;20079;-66
2023/05/07 02:18:53;;;;;;;11.65;5.32;;;;;;;2.36;66.36;147911.31;5043632;28;20029;-67
2023/05/07 02:21:19;;;;;;;10.32;5.28;;;;;;;2.30;66.62;147896.03;5054389;28;20071;-66
2023/05/07 02:23:44;;;;;;;8.13;5.03;;;;;;;2.28;67.24;147890.91;5061191;28;20036;-67
2023/05/07 02:26:11;;;;;;;8.07;4.93;;;;;;;2.40;66.14;147921.50;5057429;28;20021;-66
2023/05/07 02:28:36;;;;;;;10.43;4.72;;;;;;;2.36;66.51;147911.31;5047321;28;20092;-66
2023/05/07 02:31:05;;;;;;;7.63;4.72;;;;;;;2.50;66.33;147946.97;5064137;28;20020;-68
2023/05/07 02:33:31;;;;;;;8.18;4.57;;;;;;;2.47;66.17;147939.34;5050057;28;20411;-67
2023/05/07 02:35:57;;;;;;;6.43;4.28;;;;;;;2.32;65.81;147902.38;5054616;28;20037;-66
2023/05/07 02:38:23;;;;;;;7.13;5.07;;;;;;;2.72;66.12;148000.50;5065207;28;20057;-66
2023/05/07 02:40:48;;;;;;;7.05;4.40;;;;;;;3.03;65.88;148076.97;5075472;28;20032;-66
2023/05/07 02:43:14;;;;;;;6.38;4.53;;;;;;;3.08;64.91;148091.00;5045123;28;20026;-66
2023/05/07 02:45:40;;;;;;;6.43;4.30;;;;;;;3.18;65.18;148115.22;5060370;28;20071;-66
2023/05/07 02:48:06;;;;;;;9.93;4.72;;;;;;;3.16;64.70;148108.84;5064741;28;20086;-66
2023/05/07 02:50:32;;;;;;;9.65;4.78;;;;;;;3.11;64.29;148097.38;5064541;28;20059;-66
2023/05/07 02:52:58;;;;;;;7.00;4.80;;;;;;;3.07;63.81;148087.19;5063058;28;20036;-65
2023/05/07 02:55:23;;;;;;;7.95;4.68;;;;;;;3.42;63.52;148173.84;5045745;28;20049;-67
2023/05/07 02:57:49;;;;;;;8.75;4.95;;;;;;;3.56;63.66;148208.28;5064802;28;20029;-67
2023/05/07 03:00:17;;;;;;;4.95;4.45;;;;;;;3.55;62.56;148205.72;5064644;28;20052;-66
2023/05/07 03:02:46;;;;;;;6.25;4.47;;;;;;;3.65;62.68;148231.25;5064655;28;20036;-66
2023/05/07 03:05:12;;;;;;;4.63;4.18;;;;;;;3.65;62.45;148231.25;5063236;28;20051;-66
2023/05/07 03:07:38;;;;;;;4.55;4.15;;;;;;;3.78;62.42;148264.41;5063540;28;20233;-65
2023/05/07 03:10:05;;;;;;;5.75;4.03;;;;;;;3.84;61.96;148278.44;5063603;28;20047;-66
2023/05/07 03:12:31;;;;;;;6.75;4.63;;;;;;;3.74;61.50;148254.19;5049909;28;20025;-67
2023/05/07 03:14:56;;;;;;;5.53;4.38;;;;;;;3.84;61.51;148278.44;5053008;28;20035;-67
2023/05/07 03:17:22;;;;;;;4.18;3.75;;;;;;;3.88;61.65;148287.38;5041915;28;20201;-68
2023/05/07 03:19:48;;;;;;;5.05;3.95;;;;;;;3.89;61.42;148291.22;5044013;28;20021;-67
2023/05/07 03:22:14;;;;;;;5.72;4.10;;;;;;;3.84;61.11;148278.44;5063920;28;20100;-67
2023/05/07 03:24:40;;;;;;;6.15;4.18;;;;;;;3.64;62.29;148228.69;5031392;28;20021;-66
2023/05/07 03:27:05;;;;;;;5.88;4.03;;;;;;;3.83;62.16;148274.59;5059449;28;20027;-66
2023/05/07 03:29:31;;;;;;;7.00;4.72;;;;;;;3.87;61.35;148286.06;5064126;28;20254;-66
2023/05/07 03:31:56;;;;;;;5.28;4.43;;;;;;;4.04;61.56;148326.91;5045138;28;20037;-66
2023/05/07 03:34:22;;;;;;;8.88;4.57;;;;;;;4.21;60.45;148369.03;5044307;28;20222;-67
2023/05/07 03:36:51;;;;;;;6.20;4.50;;;;;;;4.01;60.61;148320.53;5039559;28;20021;-67
2023/05/07 03:39:17;;;;;;;6.75;4.32;;;;;;;4.18;60.40;148362.63;5058349;28;20074;-66
2023/05/07 03:41:42;;;;;;;7.88;4.40;;;;;;;4.28;60.79;148386.88;5071560;28;20029;-67
2023/05/07 03:44:08;;;;;;;7.82;4.32;;;;;;;4.34;60.83;148402.19;5063827;28;20035;-66
2023/05/07 03:46:34;;;;;;;5.82;4.38;;;;;;;4.40;59.66;148416.22;5063623;28;20086;-66
2023/05/07 03:48:59;;;;;;;8.48;4.50;;;;;;;4.28;59.58;148388.16;5045898;28;20053;-67
2023/05/07 03:51:25;;;;;;;7.15;3.80;;;;;;;4.32;58.93;148398.34;5056507;28;20024;-66
2023/05/07 03:53:52;;;;;;;7.57;4.00;;;;;;;4.38;58.78;148411.13;5066077;28;20225;-66
2023/05/07 03:56:19;;;;;;;4.13;3.50;;;;;;;4.32;58.94;148398.34;5043679;28;20060;-66
2023/05/07 03:58:45;;;;;;;5.07;3.67;;;;;;;4.52;59.12;148446.88;5043841;28;20029;-65
2023/05/07 04:01:11;;;;;;;4.80;3.30;;;;;;;4.47;58.94;148435.34;5062557;28;20336;-66
2023/05/07 04:03:36;;;;;;;5.35;3.38;;;;;;;4.50;58.69;148441.72;5048800;28;20021;-67
2023/05/07 04:06:02;;;;;;;3.75;3.30;;;;;;;4.48;59.05;148436.66;5052927;28;20341;-66
2023/05/07 04:08:28;;;;;;;3.83;3.00;;;;;;;4.52;58.34;148446.88;5058264;28;20044;-66
2023/05/07 04:10:57;;;;;;;4.40;3.50;;;;;;;4.60;57.86;148466.00;5048343;28;20032;-65
2023/05/07 04:13:23;;;;;;;5.53;3.30;;;;;;;4.64;58.15;148477.47;5063281;28;20033;-65
2023/05/07 04:15:49;;;;;;;5.25;3.33;;;;;;;4.59;58.76;148464.72;5062802;28;20032;-65
2023/05/07 04:18:15;;;;;;;4.28;3.10;;;;;;;4.36;59.00;148406.00;5051423;28;20100;-65
2023/05/07 04:20:41;;;;;;;5.75;3.15;;;;;;;4.54;58.45;148451.94;5049498;28;20207;-68
2023/05/07 04:23:07;;;;;;;8.38;3.28;;;;;;;4.51;58.55;148443.03;5062940;28;20048;-67
2023/05/07 04:25:33;;;;;;;4.05;2.70;;;;;;;4.59;58.86;148463.41;5062641;28;20028;-67
2023/05/07 04:27:58;;;;;;;4.22;2.75;;;;;;;4.55;58.58;148453.25;5045254;28;20076;-67
2023/05/07 04:30:24;;;;;;;3.25;2.60;;;;;;;4.74;58.46;148500.47;5059927;28;20020;-66
2023/05/07 04:32:50;;;;;;;4.18;2.75;;;;;;;4.64;57.69;148476.22;5054805;28;20036;-68
2023/05/07 04:35:16;;;;;;;3.70;2.40;;;;;;;4.83;56.25;148523.41;5045868;28;20024;-67
2023/05/07 04:37:42;;;;;;;4.10;2.83;;;;;;;5.01;55.93;148569.38;5062381;28;20056;-67
2023/05/07 04:40:07;;;;;;;4.97;2.50;;;;;;;5.41;54.92;148667.72;5072257;28;20025;-67
2023/05/07 04:42:33;;;;;;;4.05;2.80;;;;;;;5.58;55.00;148708.59;5063660;28;20028;-67
2023/05/07 04:44:59;;;;;;;4.15;2.50;;;;;;;6.02;53.95;148819.78;5061180;28;20017;-68
2023/05/07 04:47:25;;;;;;;3.45;2.50;;;;;;;5.93;54.51;148796.75;5062218;28;20025;-66
2023/05/07 04:49:51;;;;;;;2.70;2.50;;;;;;;6.19;52.88;148861.97;5062339;28;20047;-68
2023/05/07 04:52:16;;;;;;;3.50;2.30;;;;;;;6.73;50.83;148996.19;5041093;28;20029;-67
2023/05/07 04:54:42;;;;;;;2.88;2.53;;;;;;;7.71;49.31;149237.91;5057142;28;20032;-68
2023/05/07 04:57:07;;;;;;;3.50;2.50;;;;;;;7.91;47.16;149287.88;5062188;28;20024;-67
2023/05/07 04:59:33;;;;;;;5.13;4.00;;;;;;;8.21;46.59;149362.06;5062434;28;20045;-66
2023/05/07 05:01:59;;;;;;;5.82;2.95;;;;;;;8.96;44.62;149549.06;5061744;28;20036;-67
2023/05/07 05:04:24;;;;;;;2.60;2.40;;;;;;;9.59;43.67;149705.34;5061443;28;20126;-67
2023/05/07 05:06:50;;;;;;;4.60;3.00;;;;;;;9.99;42.53;149806.63;5061594;28;20032;-68
2023/05/07 05:09:16;;;;;;;3.88;2.40;;;;;;;10.07;41.77;149825.84;5051194;28;20032;-68
2023/05/07 05:11:42;;;;;;;3.38;2.28;;;;;;;10.19;40.36;149855.34;5047430;28;20040;-68
2023/05/07 05:14:07;;;;;;;3.30;2.30;;;;;;;10.12;42.82;149837.41;5043717;28;20045;-69
2023/05/07 05:16:33;;;;;;;5.68;2.45;;;;;;;9.90;42.50;149782.28;5044442;28;20051;-68
2023/05/07 05:18:59;;;;;;;3.05;2.72;;;;;;;9.80;43.23;149757.91;5031568;28;20036;-68
2023/05/07 05:21:25;;;;;;;3.92;2.72;;;;;;;9.78;42.58;149752.81;5054046;28;20044;-68
2023/05/07 05:23:50;;;;;;;4.68;2.30;;;;;;;9.13;42.22;149592.59;5062014;28;20024;-67
2023/05/07 05:26:16;;;;;;;3.72;2.80;;;;;;;9.40;44.21;149659.22;5061824;28;20071;-68
2023/05/07 05:28:42;;;;;;;3.80;2.50;;;;;;;9.43;42.28;149666.91;5061834;28;20282;-67
2023/05/07 05:31:07;;;;;;;6.03;2.60;;;;;;;9.01;43.21;149560.56;5061265;28;20210;-68
2023/05/07 05:33:33;;;;;;;3.75;1.58;;;;;;;8.62;41.80;149465.84;5048386;28;20099;-69
2023/05/07 05:35:59;;;;;;;2.00;1.70;;;;;;;8.48;41.87;149428.69;5049590;28;20041;-66
2023/05/07 05:38:25;;;;;;;2.63;1.70;;;;;;;8.36;42.26;149400.47;5061482;28;20033;-68
2023/05/07 05:40:51;;;;;;;2.40;1.70;;;;;;;8.26;41.82;149374.88;5061682;28;20343;-68
2023/05/07 05:43:16;;;;;;;1.73;1.45;;;;;;;8.43;41.54;149417.13;5061752;28;20053;-68
2023/05/07 05:45:42;;;;;;;4.10;1.90;;;;;;;9.03;41.03;149567.00;5071432;28;20025;-67
2023/05/07 05:48:08;;;;;;;1.45;1.35;;;;;;;8.42;39.75;149414.53;5059186;28;20025;-68
2023/05/07 05:50:36;;;;;;;3.55;2.00;;;;;;;8.64;40.87;149469.69;5046742;28;20024;-68
2023/05/07 05:53:02;;;;;;;2.15;1.90;;;;;;;8.40;42.07;149409.44;5043291;28;20073;-67
2023/05/07 05:55:27;;;;;;;3.00;1.80;;;;;;;8.49;41.98;149432.50;5043271;28;20036;-68
2023/05/07 05:57:53;;;;;;;3.70;1.67;;;;;;;8.41;41.25;149413.28;5061881;28;20029;-67
2023/05/07 06:00:22;;;;;;;2.53;1.55;;;;;;;7.89;41.24;149283.97;5061630;28;20028;-68
2023/05/07 06:02:48;;;;;;;4.90;1.85;;;;;;;8.04;41.94;149321.13;5051306;28;20040;-68
2023/05/07 06:05:13;;;;;;;2.00;1.83;;;;;;;7.99;41.86;149308.31;5065794;28;20059;-68
2023/05/07 06:07:39;;;;;;;1.73;1.63;;;;;;;7.83;41.77;149267.38;5065563;28;20130;-70
2023/05/07 06:10:05;;;;;;;3.35;2.30;;;;;;;7.92;41.68;149291.69;5048063;28;20195;-67
2023/05/07 06:12:31;;;;;;;2.42;1.90;;;;;;;7.71;40.36;149239.22;5051789;28;20262;-67
2023/05/07 06:14:57;;;;;;;3.22;1.70;;;;;;;7.54;39.31;149195.69;5047765;28;20029;-67
2023/05/07 06:17:22;;;;;;;3.70;1.50;;;;;;;7.77;40.06;149254.56;5061095;28;20135;-66
2023/05/07 06:19:48;;;;;;;3.63;1.48;;;;;;;8.07;40.65;149327.53;5045448;28;20053;-67
2023/05/07 06:22:13;;;;;;;3.75;2.28;;;;;;;8.25;41.34;149372.28;5063578;28;20032;-67
2023/05/07 06:24:39;;;;;;;1.60;1.35;;;;;;;8.35;41.74;149396.63;5065325;28;20039;-67
2023/05/07 06:27:05;;;;;;;4.35;1.60;;;;;;;8.52;41.33;149440.19;5056125;28;20222;-66
2023/05/07 06:29:32;;;;;;;2.55;1.50;;;;;;;8.31;40.25;149387.69;5055222;28;20101;-67
2023/05/07 06:32:07;;;;;;;1.50;1.40;;;;;;;8.06;39.10;149326.22;5064608;28;20069;-67
2023/05/07 06:34:33;;;;;;;2.45;1.55;;;;;;;7.84;39.65;149269.91;5044668;28;20029;-68
2023/05/07 06:36:58;;;;;;;2.08;1.40;;;;;;;7.94;39.06;149295.53;5060826;28;20051;-67
2023/05/07 06:39:24;;;;;;;2.05;1.60;;;;;;;8.01;39.37;149313.44;5061572;28;20020;-68
2023/05/07 06:41:49;;;;;;;2.10;1.40;;;;;;;7.69;39.14;149232.81;5071846;28;20088;-67
2023/05/07 06:44:15;;;;;;;1.35;1.25;;;;;;;7.64;38.85;149220.00;5064852;28;20036;-67
2023/05/07 06:46:41;;;;;;;2.95;1.45;;;;;;;7.80;37.69;149259.72;5064702;28;20295;-67
2023/05/07 06:49:07;;;;;;;1.42;1.33;;;;;;;7.74;39.49;149246.88;5064905;28;20066;-67
2023/05/07 06:51:32;;;;;;;1.40;1.30;;;;;;;7.81;39.82;149262.22;5064412;28;20131;-67
2023/05/07 06:53:58;;;;;;;2.72;2.10;;;;;;;7.85;39.35;149272.47;5056746;28;20354;-66
2023/05/07 06:56:24;;;;;;;3.88;1.63;;;;;;;7.50;38.62;149186.75;5052627;28;20236;-66
2023/05/07 06:58:50;;;;;;;2.63;1.50;;;;;;;7.36;37.95;149152.19;5047096;28;20039;-67
2023/05/07 07:01:16;;;;;;;2.50;1.73;;;;;;;7.37;38.64;149154.78;5064462;28;20025;-66
2023/05/07 07:03:41;;;;;;;4.50;2.03;;;;;;;7.14;39.76;149097.22;5050897;28;20082;-66
2023/05/07 07:06:07;;;;;;;3.33;2.47;;;;;;;7.57;39.62;149203.41;5053451;28;20057;-66
2023/05/07 07:08:33;;;;;;;2.80;1.60;;;;;;;7.73;37.91;149244.31;5060447;28;20096;-67
2023/05/07 07:10:58;;;;;;;3.40;1.48;;;;;;;7.65;38.97;149223.84;5049785;28;20032;-66
2023/05/07 07:13:24;;;;;;;2.80;1.27;;;;;;;7.46;38.54;149175.25;5063254;28;20021;-66
2023/05/07 07:15:50;;;;;;;4.95;1.60;;;;;;;7.37;39.96;149154.78;5064254;28;20025;-65
2023/05/07 07:18:15;;;;;;;2.78;1.45;;;;;;;7.34;39.95;149145.78;5054288;28;20045;-66
2023/05/07 07:20:41;;;;;;;4.15;1.80;;;;;;;7.69;38.91;149234.06;5049350;28;20059;-67
2023/05/07 07:23:06;;;;;;;3.28;1.70;;;;;;;7.97;38.96;149303.22;5064125;28;20340;-66
2023/05/07 07:25:32;;;;;;;2.03;1.33;;;;;;;7.63;36.94;149218.75;5064054;28;20038;-66
2023/05/07 07:27:58;;;;;;;2.80;1.90;;;;;;;7.66;38.15;149226.41;5048232;28;20029;-66
2023/05/07 07:30:23;;;;;;;4.65;1.63;;;;;;;7.75;37.34;149249.47;5061228;28;20021;-66
2023/05/07 07:32:49;;;;;;;4.88;1.63;;;;;;;7.63;36.59;149218.75;5057583;28;20030;-66
2023/05/07 07:35:15;;;;;;;2.92;1.60;;;;;;;7.75;38.25;149249.47;5045562;28;20330;-66
2023/05/07 07:37:40;;;;;;;2.08;1.85;;;;;;;7.72;36.78;149241.75;5064269;28;20237;-66
2023/05/07 07:40:06;;;;;;;2.28;1.70;;;;;;;7.75;36.54;149248.16;5074266;28;20044;-67
2023/05/07 07:42:32;;;;;;;3.42;1.73;;;;;;;7.69;37.41;149234.06;5064948;28;20024;-68
2023/05/07 07:44:58;;;;;;;1.60;1.38;;;;;;;7.89;36.42;149283.97;5064103;28;20391;-66
2023/05/07 07:47:23;;;;;;;2.08;1.40;;;;;;;7.71;36.58;149237.91;5061173;28;20036;-66
2023/05/07 07:49:49;;;;;;;1.88;1.20;;;;;;;7.58;36.42;149207.22;5044068;28;20033;-67
2023/05/07 07:52:15;;;;;;;10.88;1.67;;;;;;;7.54;35.22;149197.00;5061873;28;20037;-65
2023/05/07 07:54:40;;;;;;;2.42;1.30;;;;;;;7.81;35.55;149262.22;5063574;28;20025;-67
2023/05/07 07:57:06;;;;;;;2.40;1.23;;;;;;;7.99;33.60;149308.31;5069071;28;20085;-66
2023/05/07 07:59:32;;;;;;;2.67;1.20;;;;;;;8.37;34.47;149401.78;5064792;28;20233;-65
2023/05/07 08:01:57;;;;;;;1.63;1.30;;;;;;;8.22;34.28;149365.94;5063495;28;20024;-68
2023/05/07 08:04:23;;;;;;;1.45;1.35;;;;;;;8.39;35.43;149408.13;5046449;28;20049;-67
2023/05/07 08:06:48;;;;;;;1.50;1.20;;;;;;;8.06;35.15;149326.22;5062743;28;20031;-68
2023/05/07 08:09:14;;;;;;;2.05;1.30;;;;;;;7.99;34.66;149308.31;5053447;28;20059;-66
2023/05/07 08:11:40;;;;;;;3.10;1.38;;;;;;;8.19;34.82;149356.94;5054361;28;20321;-66
2023/05/07 08:14:05;;;;;;;4.13;1.50;;;;;;;7.89;34.22;149282.72;5063276;28;20033;-66
2023/05/07 08:16:31;;;;;;;1.58;1.40;;;;;;;7.85;34.39;149272.47;5063101;28;20036;-66
2023/05/07 08:18:57;;;;;;;1.75;1.55;;;;;;;7.94;34.98;149296.78;5048043;28;20233;-66
2023/05/07 08:21:23;;;;;;;1.75;1.60;;;;;;;7.94;35.47;149295.53;5053444;28;20312;-66
2023/05/07 08:23:49;;;;;;;4.32;1.60;;;;;;;7.80;33.52;149260.97;5057371;28;20026;-65
2023/05/07 08:26:14;;;;;;;2.60;1.60;;;;;;;7.70;34.38;149236.66;5050570;28;20040;-66
2023/05/07 08:28:40;;;;;;;2.88;1.40;;;;;;;7.88;35.34;149280.16;5063192;28;20020;-66
2023/05/07 08:31:06;;;;;;;2.58;1.20;;;;;;;7.74;34.22;149245.63;5062730;28;20024;-65
2023/05/07 08:33:31;;;;;;;2.30;2.10;;;;;;;7.94;34.99;149296.78;5033746;28;20273;-65
2023/05/07 08:35:57;;;;;;;1.30;1.20;;;;;;;8.26;33.90;149374.88;5031229;28;20040;-66
2023/05/07 08:38:22;;;;;;;3.45;1.38;;;;;;;8.62;33.91;149465.84;5060384;28;20381;-66
2023/05/07 08:40:48;;;;;;;2.92;1.30;;;;;;;8.64;32.26;149469.69;5062420;28;20021;-65
2023/05/07 08:43:17;;;;;;;3.92;1.63;;;;;;;8.41;32.17;149413.28;5045384;28;20021;-66
2023/05/07 08:45:45;;;;;;;2.33;1.45;;;;;;;8.20;33.21;149359.53;5055178;28;20032;-66
2023/05/07 08:48:17;;;;;;;1.70;1.60;;;;;;;8.32;33.82;149388.97;5062303;28;20025;-65
2023/05/07 08:50:43;;;;;;;1.80;1.52;;;;;;;8.20;33.03;149359.53;5060891;28;20136;-66
2023/05/07 08:53:09;;;;;;;1.92;1.52;;;;;;;8.39;33.29;149406.88;5062522;28;20092;-65
2023/05/07 08:55:34;;;;;;;3.65;1.60;;;;;;;8.46;35.69;149424.84;5044730;28;20030;-66
2023/05/07 08:58:01;;;;;;;4.60;1.60;;;;;;;8.67;32.84;149476.09;5047041;28;20084;-66
2023/05/07 09:00:27;;;;;;;3.53;1.50;;;;;;;8.39;31.82;149406.88;5053036;28;20074;-66
2023/05/07 09:02:53;;;;;;;3.17;1.40;;;;;;;8.80;32.29;149509.38;5056592;28;20033;-66
2023/05/07 09:05:19;;;;;;;3.50;1.75;;;;;;;8.92;32.48;149538.81;5043256;28;20052;-65
2023/05/07 09:07:46;;;;;;;2.58;1.48;;;;;;;8.80;31.09;149509.38;5044406;28;20218;-65
2023/05/07 09:10:12;;;;;;;2.53;1.70;;;;;;;8.92;32.72;149538.81;5045420;28;20093;-66
2023/05/07 09:12:39;;;;;;;2.20;1.42;;;;;;;8.57;32.10;149451.75;5067249;28;20037;-67
2023/05/07 09:15:05;;;;;;;3.92;1.40;;;;;;;8.41;33.86;149412.03;5062265;28;20032;-66
2023/05/07 09:17:31;;;;;;;3.13;1.65;;;;;;;8.24;33.31;149369.78;5059170;28;20325;-66
2023/05/07 09:20:05;;;;;;;3.33;1.40;;;;;;;8.26;34.29;149374.88;5041741;28;20034;-65
2023/05/07 09:22:36;;;;;;;2.67;1.33;;;;;;;8.26;33.80;149376.13;5061131;28;20025;-66
2023/05/07 09:25:02;;;;;;;2.95;1.67;;;;;;;8.20;33.63;149359.53;5046636;28;20032;-66
2023/05/07 09:27:28;;;;;;;1.73;1.45;;;;;;;8.42;33.82;149415.84;5065653;28;20028;-66
2023/05/07 09:29:53;;;;;;;1.98;1.20;;;;;;;8.67;32.49;149477.34;5061495;28;20044;-65
2023/05/07 09:32:19;;;;;;;2.10;1.30;;;;;;;8.89;33.48;149532.44;5060962;28;20028;-65
2023/05/07 09:34:46;;;;;;;1.33;1.17;;;;;;;9.09;31.85;149582.41;5042310;28;20383;-67
2023/05/07 09:37:13;;;;;;;1.35;1.20;;;;;;;8.96;30.43;149549.06;5056658;28;20039;-66
2023/05/07 09:39:40;;;;;;;3.20;1.50;;;;;;;9.37;31.84;149651.53;5056441;28;20035;-66
2023/05/07 09:42:06;;;;;;;4.03;1.50;;;;;;;9.16;30.70;149599.00;5061481;28;20086;-66
2023/05/07 09:44:33;;;;;;;1.58;1.33;;;;;;;9.08;31.27;149579.81;5043968;28;20088;-65
2023/05/07 09:47:00;;;;;;;1.33;1.23;;;;;;;8.96;32.15;149549.06;5061628;28;20033;-66
2023/05/07 09:49:32;;;;;;;2.00;1.30;;;;;;;8.48;31.53;149428.69;5061742;28;20070;-67
2023/05/07 09:52:00;;;;;;;2.33;1.55;;;;;;;8.66;31.56;149473.50;5061239;28;20037;-66
2023/05/07 09:54:28;;;;;;;2.35;1.30;;;;;;;8.92;32.56;149540.13;5051708;28;20032;-66
2023/05/07 09:56:55;;;;;;;2.03;1.20;;;;;;;9.06;32.13;149573.41;5052941;28;20096;-67
2023/05/07 09:59:22;;;;;;;1.38;1.17;;;;;;;9.08;32.15;149579.81;5059294;28;20312;-66
2023/05/07 10:01:49;;;;;;;2.63;1.30;;;;;;;9.00;31.91;149558.03;5036205;28;20350;-66
2023/05/07 10:04:16;;;;;;;2.28;1.40;;;;;;;9.00;32.00;149558.03;5043778;28;20621;-66
2023/05/07 10:06:43;;;;;;;2.22;1.45;;;;;;;8.84;31.84;149519.63;5061653;28;20214;-65
2023/05/07 10:09:11;;;;;;;2.70;1.33;;;;;;;9.23;30.87;149615.69;5061311;28;20336;-65
2023/05/07 10:11:37;;;;;;;1.80;1.23;;;;;;;9.40;30.59;149657.97;5051479;28;20037;-66
2023/05/07 10:14:07;;;;;;;1.60;1.50;;;;;;;9.36;29.80;149648.97;5061459;28;20036;-66
2023/05/07 10:16:38;;;;;;;2.22;1.45;;;;;;;9.29;30.79;149631.03;5061177;28;20032;-66
2023/05/07 10:19:05;;;;;;;1.40;1.25;;;;;;;9.33;30.63;149642.59;5039835;28;20022;-65
2023/05/07 10:21:36;;;;;;;1.35;1.25;;;;;;;9.27;29.91;149625.94;5033781;28;20084;-66
2023/05/07 10:24:13;;;;;;;1.10;1.10;;;;;;;9.31;30.81;149637.44;5061021;28;20032;-66
2023/05/07 10:26:44;;;;;;;2.35;1.27;;;;;;;9.15;31.03;149597.75;5060865;28;20028;-66
2023/05/07 10:29:18;;;;;;;5.70;2.05;;;;;;;9.13;30.12;149591.34;5061093;28;20198;-66
2023/05/07 10:31:55;;;;;;;2.95;1.80;;;;;;;9.52;31.07;149687.41;5060573;28;20033;-66
2023/05/07 10:34:26;;;;;;;1.65;1.48;;;;;;;9.66;30.58;149723.28;5043928;28;20029;-66
2023/05/07 10:36:52;;;;;;;4.10;1.52;;;;;;;9.79;30.76;149755.34;5045529;28;20029;-66
2023/05/07 10:39:19;;;;;;;3.28;1.45;;;;;;;9.89;32.23;149779.69;5060813;28;20017;-65
2023/05/07 10:41:45;;;;;;;1.83;1.70;;;;;;;9.79;31.10;149755.34;5057181;28;20025;-66
2023/05/07 10:44:11;;;;;;;1.55;1.45;;;;;;;9.63;30.76;149715.63;5041296;28;20029;-66
2023/05/07 10:46:37;;;;;;;1.58;1.48;;;;;;;9.62;30.82;149714.34;5060496;28;20036;-66
2023/05/07 10:49:08;;;;;;;3.80;1.75;;;;;;;9.63;30.36;149715.63;5063650;28;20045;-65
2023/05/07 10:51:35;;;;;;;2.03;1.60;;;;;;;9.47;30.37;149677.16;5064507;28;20029;-66
2023/05/07 10:54:09;;;;;;;2.63;1.52;;;;;;;9.75;30.71;149746.38;5058525;28;20033;-65
2023/05/07 10:56:37;;;;;;;1.35;1.25;;;;;;;9.71;30.58;149734.88;5055298;28;20102;-66
2023/05/07 10:59:23;;;;;;;2.10;1.80;;;;;;;9.70;30.81;149733.56;5064513;28;20035;-66
2023/05/07 11:02:02;;;;;;;2.33;1.90;;;;;;;9.45;31.92;149672.06;5064545;28;20082;-65
2023/05/07 11:04:29;;;;;;;2.83;1.58;;;;;;;9.37;31.84;149650.28;5064549;28;20544;-66
2023/05/07 11:07:10;;;;;;;4.55;1.63;;;;;;;9.34;31.79;149643.88;5064308;28;20043;-67
2023/05/07 11:09:58;;;;;;;2.40;1.52;;;;;;;9.34;32.92;149643.88;5064226;28;20336;-65
2023/05/07 11:12:35;;;;;;;2.95;1.77;;;;;;;9.27;31.76;149625.94;5063725;28;20194;-67
2023/05/07 11:15:04;;;;;;;2.85;1.50;;;;;;;9.33;31.90;149642.59;5064262;28;20043;-66
2023/05/07 11:17:34;;;;;;;1.80;1.40;;;;;;;9.26;32.33;149624.66;5062685;28;20021;-65
2023/05/07 11:20:01;;;;;;;3.58;1.80;;;;;;;9.07;31.58;149577.25;5044077;28;20233;-66
2023/05/07 11:22:32;;;;;;;3.47;1.65;;;;;;;9.31;30.81;149636.19;5061351;28;20329;-66
2023/05/07 11:25:05;;;;;;;4.68;1.40;;;;;;;9.40;31.46;149659.22;5050284;28;20035;-65
2023/05/07 11:27:32;;;;;;;2.17;1.70;;;;;;;9.42;31.50;149664.38;5062276;28;20298;-66
2023/05/07 11:29:59;;;;;;;2.08;1.60;;;;;;;9.54;31.11;149693.84;5063861;28;20297;-66
2023/05/07 11:32:29;;;;;;;2.40;1.83;;;;;;;9.30;30.70;149634.88;5063118;28;20032;-65